Portage Glacier, AK

11:13 AM AKDT on July 01, 2015 (GMT -0800)
Portage Glacier | Change Station
CLOSE
Current Station
Airport
Location: Portage Glacier,
Elevation: 102 ft
Nearby Weather Stations

Elev 102 ft 60.78 °N, 148.84 °W | Updated 20 minutes ago

Overcast
Overcast
52 °F
Feels Like 52 °F
N
5
Wind Variable Wind from ESE

Today
High -- | Low -- °F
--% Chance of Precip.
Yesterday
High -- | Low -- °F
Precip. -- in
4:28 AM 11:29 PM
Full, 100% visible
Pressure 30.20 in
Visibility 10.0 miles
Clouds Mostly Cloudy 3300 ft
Overcast 4900 ft
Dew Point 47 °F
Humidity 83%
Rainfall 0.00 in
Snow Depth 0 in
UV 2 out of 12
Pollen Not available.
Air Quality Not available.
Flu Activity Not available.
METAR PATO 011853Z AUTO 11004KT 10SM BKN033 OVC049 11/08 A3020 RMK AO2 RAB16E25 SLP227 P0000 T01110083 TSNO

More Conditions Fewer Conditions

Pressure 30.20 in
Visibility 10.0 miles
Clouds Mostly Cloudy 3300 ft
Overcast 4900 ft
Dew Point 47 °F
Humidity 83%
Rainfall 0.00 in
Snow Depth 0 in
UV 2 out of 12
Pollen Not available.
Air Quality Not available.
Flu Activity Not available.
METAR PATO 011853Z AUTO 11004KT 10SM BKN033 OVC049 11/08 A3020 RMK AO2 RAB16E25 SLP227 P0000 T01110083 TSNO

More Conditions Fewer Conditions

10-Day Weather Forecast

Almanac

Astronomy

Jul. 01, 2015 Rise Set
Actual Time 4:28 AM AKDT 11:29 PM AKDT
Civil Twilight 2:19 AM AKDT 1:33 AM AKDT
Nautical Twilight Sun does not rise Sun does not rise
Astronomical Twilight Sun does not rise Sun does not rise
Moon 10:29 PM AKDT 4:59 AM AKDT
Length of Visible Light 23h 13m
Length of Day
19h 00m
Tomorrow will be 2m 3s shorter.
Full, 100% of the Moon is Illuminated
Today
Full
Jul 1
Full
Jul 8
Last Quarter
Jul 15
New
Jul 24
First Quarter

Today's Extremes

State Highs State Lows

Community

WunderPhotos

Upload Photos

1,834,243 photos uploaded!

Nearby

Snow Depth

Station Depth Elevation
Grandview 0 in 1100 ft
Summit Creek 0 in 1400 ft
Indian Pass 1 in 2300 ft
Moraine 0 in 2100 ft
Grouse Creek Divide 0 in 700 ft

Earthquake Activity

City Distance Mag. Time & Date
No recent earthquake activity has been reported nearby.
Minimum magnitude displayed is 2.5.

Coastal Water Temperatures

Place Temperature
No Stations Reporting

Nearby Weather Stations